sensor_id;sensor_type;location;lat;lon;timestamp;temperature;humidity
54082;DHT22;39986;50.770;0.266;2023-08-12T00:00:04;17.30;99.90
54082;DHT22;39986;50.770;0.266;2023-08-12T00:02:37;17.30;99.90
54082;DHT22;39986;50.770;0.266;2023-08-12T00:05:04;17.30;99.90
54082;DHT22;39986;50.770;0.266;2023-08-12T00:07:29;17.30;99.90
54082;DHT22;39986;50.770;0.266;2023-08-12T00:09:55;17.20;99.90
54082;DHT22;39986;50.770;0.266;2023-08-12T00:12:21;17.10;99.90
54082;DHT22;39986;50.770;0.266;2023-08-12T00:14:47;17.10;99.90
54082;DHT22;39986;50.770;0.266;2023-08-12T00:17:12;17.10;99.90
54082;DHT22;39986;50.770;0.266;2023-08-12T00:19:38;17.00;99.90
54082;DHT22;39986;50.770;0.266;2023-08-12T00:22:03;17.00;99.90
54082;DHT22;39986;50.770;0.266;2023-08-12T00:24:30;17.00;99.90
54082;DHT22;39986;50.770;0.266;2023-08-12T00:26:55;17.00;99.90
54082;DHT22;39986;50.770;0.266;2023-08-12T00:29:21;16.90;99.90
54082;DHT22;39986;50.770;0.266;2023-08-12T00:31:46;17.00;99.90
54082;DHT22;39986;50.770;0.266;2023-08-12T00:34:12;17.00;99.90
54082;DHT22;39986;50.770;0.266;2023-08-12T00:36:38;17.00;99.90
54082;DHT22;39986;50.770;0.266;2023-08-12T00:39:03;17.00;99.90
54082;DHT22;39986;50.770;0.266;2023-08-12T00:41:29;17.00;99.90
54082;DHT22;39986;50.770;0.266;2023-08-12T00:43:55;17.00;99.90
54082;DHT22;39986;50.770;0.266;2023-08-12T00:46:21;17.00;99.90
54082;DHT22;39986;50.770;0.266;2023-08-12T00:48:47;17.00;99.90
54082;DHT22;39986;50.770;0.266;2023-08-12T00:51:12;17.00;99.90
54082;DHT22;39986;50.770;0.266;2023-08-12T00:53:38;17.00;99.90
54082;DHT22;39986;50.770;0.266;2023-08-12T00:56:04;17.00;99.90
54082;DHT22;39986;50.770;0.266;2023-08-12T00:58:30;16.90;99.90
54082;DHT22;39986;50.770;0.266;2023-08-12T01:00:55;16.90;99.90
54082;DHT22;39986;50.770;0.266;2023-08-12T01:03:21;17.00;99.90
54082;DHT22;39986;50.770;0.266;2023-08-12T01:05:47;17.00;99.90
54082;DHT22;39986;50.770;0.266;2023-08-12T01:08:12;17.00;99.90
54082;DHT22;39986;50.770;0.266;2023-08-12T01:10:39;17.00;99.90
54082;DHT22;39986;50.770;0.266;2023-08-12T01:13:17;17.00;99.90
54082;DHT22;39986;50.770;0.266;2023-08-12T01:15:44;17.00;99.90
54082;DHT22;39986;50.770;0.266;2023-08-12T01:18:10;17.00;99.90
54082;DHT22;39986;50.770;0.266;2023-08-12T01:20:36;17.00;99.90
54082;DHT22;39986;50.770;0.266;2023-08-12T01:25:34;17.00;99.90
54082;DHT22;39986;50.770;0.266;2023-08-12T01:27:59;17.00;99.90
54082;DHT22;39986;50.770;0.266;2023-08-12T01:30:25;17.00;99.90
54082;DHT22;39986;50.770;0.266;2023-08-12T01:32:55;17.00;99.90
54082;DHT22;39986;50.770;0.266;2023-08-12T01:35:25;17.10;99.90
54082;DHT22;39986;50.770;0.266;2023-08-12T01:37:52;17.00;99.90
54082;DHT22;39986;50.770;0.266;2023-08-12T01:40:18;17.00;99.90
54082;DHT22;39986;50.770;0.266;2023-08-12T01:42:44;17.00;99.90
54082;DHT22;39986;50.770;0.266;2023-08-12T01:45:10;16.90;99.90
54082;DHT22;39986;50.770;0.266;2023-08-12T01:47:36;17.00;99.90
54082;DHT22;39986;50.770;0.266;2023-08-12T01:50:01;16.90;99.90
54082;DHT22;39986;50.770;0.266;2023-08-12T01:52:27;16.90;99.90
54082;DHT22;39986;50.770;0.266;2023-08-12T01:54:52;17.00;99.90
54082;DHT22;39986;50.770;0.266;2023-08-12T01:57:18;17.00;99.90
54082;DHT22;39986;50.770;0.266;2023-08-12T01:59:43;16.90;99.90
54082;DHT22;39986;50.770;0.266;2023-08-12T02:02:12;17.00;99.90
54082;DHT22;39986;50.770;0.266;2023-08-12T02:04:39;17.00;99.90
54082;DHT22;39986;50.770;0.266;2023-08-12T02:07:04;17.00;99.90
54082;DHT22;39986;50.770;0.266;2023-08-12T02:09:30;17.00;99.90
54082;DHT22;39986;50.770;0.266;2023-08-12T02:11:56;16.90;99.90
54082;DHT22;39986;50.770;0.266;2023-08-12T02:14:21;16.90;99.90
54082;DHT22;39986;50.770;0.266;2023-08-12T02:16:47;16.90;99.90
54082;DHT22;39986;50.770;0.266;2023-08-12T02:19:12;16.90;99.90
54082;DHT22;39986;50.770;0.266;2023-08-12T02:21:38;16.90;99.90
54082;DHT22;39986;50.770;0.266;2023-08-12T02:24:03;16.90;99.90
54082;DHT22;39986;50.770;0.266;2023-08-12T02:26:29;16.90;99.90
54082;DHT22;39986;50.770;0.266;2023-08-12T02:28:55;16.80;99.90
54082;DHT22;39986;50.770;0.266;2023-08-12T02:31:21;16.90;99.90
54082;DHT22;39986;50.770;0.266;2023-08-12T02:33:46;16.90;99.90
54082;DHT22;39986;50.770;0.266;2023-08-12T02:36:12;17.00;99.90
54082;DHT22;39986;50.770;0.266;2023-08-12T02:38:37;16.90;99.90
54082;DHT22;39986;50.770;0.266;2023-08-12T02:41:03;16.90;99.90
54082;DHT22;39986;50.770;0.266;2023-08-12T02:43:28;16.80;99.90
54082;DHT22;39986;50.770;0.266;2023-08-12T02:45:54;16.90;99.90
54082;DHT22;39986;50.770;0.266;2023-08-12T02:48:19;16.90;99.90
54082;DHT22;39986;50.770;0.266;2023-08-12T02:50:45;16.90;99.90
54082;DHT22;39986;50.770;0.266;2023-08-12T02:53:10;16.90;99.90
54082;DHT22;39986;50.770;0.266;2023-08-12T02:55:36;16.90;99.90
54082;DHT22;39986;50.770;0.266;2023-08-12T02:58:03;16.80;99.90
54082;DHT22;39986;50.770;0.266;2023-08-12T03:00:28;16.80;99.90
54082;DHT22;39986;50.770;0.266;2023-08-12T03:02:54;16.80;99.90
54082;DHT22;39986;50.770;0.266;2023-08-12T03:05:19;16.90;99.90
54082;DHT22;39986;50.770;0.266;2023-08-12T03:07:45;16.90;99.90
54082;DHT22;39986;50.770;0.266;2023-08-12T03:10:11;16.90;99.90
54082;DHT22;39986;50.770;0.266;2023-08-12T03:12:36;16.90;99.90
54082;DHT22;39986;50.770;0.266;2023-08-12T03:15:02;16.90;99.90
54082;DHT22;39986;50.770;0.266;2023-08-12T03:17:28;16.90;99.90
54082;DHT22;39986;50.770;0.266;2023-08-12T03:19:54;17.00;99.90
54082;DHT22;39986;50.770;0.266;2023-08-12T03:22:20;17.00;99.90
54082;DHT22;39986;50.770;0.266;2023-08-12T03:24:45;16.90;99.90
54082;DHT22;39986;50.770;0.266;2023-08-12T03:27:11;16.90;99.90
54082;DHT22;39986;50.770;0.266;2023-08-12T03:29:36;16.90;99.90
54082;DHT22;39986;50.770;0.266;2023-08-12T03:32:02;16.90;99.90
54082;DHT22;39986;50.770;0.266;2023-08-12T03:34:28;16.80;99.90
54082;DHT22;39986;50.770;0.266;2023-08-12T03:36:54;16.90;99.90
54082;DHT22;39986;50.770;0.266;2023-08-12T03:39:20;16.90;99.90
54082;DHT22;39986;50.770;0.266;2023-08-12T03:41:46;16.90;99.90
54082;DHT22;39986;50.770;0.266;2023-08-12T03:44:11;17.00;99.90
54082;DHT22;39986;50.770;0.266;2023-08-12T03:46:37;17.00;99.90
54082;DHT22;39986;50.770;0.266;2023-08-12T03:49:02;16.90;99.90
54082;DHT22;39986;50.770;0.266;2023-08-12T03:51:28;17.00;99.90
54082;DHT22;39986;50.770;0.266;2023-08-12T03:53:53;17.00;99.90
54082;DHT22;39986;50.770;0.266;2023-08-12T03:56:19;17.00;99.90
54082;DHT22;39986;50.770;0.266;2023-08-12T03:58:44;17.10;99.90
54082;DHT22;39986;50.770;0.266;2023-08-12T04:01:10;17.00;99.90
54082;DHT22;39986;50.770;0.266;2023-08-12T04:03:36;17.00;99.90
54082;DHT22;39986;50.770;0.266;2023-08-12T04:06:01;17.00;99.90
54082;DHT22;39986;50.770;0.266;2023-08-12T04:08:28;17.00;99.90
54082;DHT22;39986;50.770;0.266;2023-08-12T04:10:54;17.00;99.90
54082;DHT22;39986;50.770;0.266;2023-08-12T04:13:20;17.00;99.90
54082;DHT22;39986;50.770;0.266;2023-08-12T04:15:51;17.00;99.90
54082;DHT22;39986;50.770;0.266;2023-08-12T04:18:18;17.00;99.90
54082;DHT22;39986;50.770;0.266;2023-08-12T04:20:45;17.00;99.90
54082;DHT22;39986;50.770;0.266;2023-08-12T04:23:10;16.90;99.90
54082;DHT22;39986;50.770;0.266;2023-08-12T04:25:36;16.90;99.90
54082;DHT22;39986;50.770;0.266;2023-08-12T04:28:01;16.90;99.90
54082;DHT22;39986;50.770;0.266;2023-08-12T04:30:27;16.80;99.90
54082;DHT22;39986;50.770;0.266;2023-08-12T04:32:52;16.90;99.90
54082;DHT22;39986;50.770;0.266;2023-08-12T04:35:18;16.80;99.90
54082;DHT22;39986;50.770;0.266;2023-08-12T04:37:43;16.90;99.90
54082;DHT22;39986;50.770;0.266;2023-08-12T04:40:09;16.90;99.90
54082;DHT22;39986;50.770;0.266;2023-08-12T04:42:34;16.90;99.90
54082;DHT22;39986;50.770;0.266;2023-08-12T04:45:00;16.90;99.90
54082;DHT22;39986;50.770;0.266;2023-08-12T04:47:26;17.00;99.90
54082;DHT22;39986;50.770;0.266;2023-08-12T04:49:51;17.00;99.90
54082;DHT22;39986;50.770;0.266;2023-08-12T04:52:17;17.00;99.90
54082;DHT22;39986;50.770;0.266;2023-08-12T04:54:43;17.00;99.90
54082;DHT22;39986;50.770;0.266;2023-08-12T04:57:08;16.90;99.90
54082;DHT22;39986;50.770;0.266;2023-08-12T04:59:34;16.80;99.90
54082;DHT22;39986;50.770;0.266;2023-08-12T05:02:00;16.80;99.90
54082;DHT22;39986;50.770;0.266;2023-08-12T05:04:25;16.80;99.90
54082;DHT22;39986;50.770;0.266;2023-08-12T05:06:51;16.70;99.90
54082;DHT22;39986;50.770;0.266;2023-08-12T05:09:16;16.70;99.90
54082;DHT22;39986;50.770;0.266;2023-08-12T05:11:42;16.70;99.90
54082;DHT22;39986;50.770;0.266;2023-08-12T05:14:07;16.70;99.90
54082;DHT22;39986;50.770;0.266;2023-08-12T05:16:33;16.80;99.90
54082;DHT22;39986;50.770;0.266;2023-08-12T05:18:59;16.80;99.90
54082;DHT22;39986;50.770;0.266;2023-08-12T05:21:24;16.80;99.90
54082;DHT22;39986;50.770;0.266;2023-08-12T05:23:50;16.90;99.90
54082;DHT22;39986;50.770;0.266;2023-08-12T05:26:15;16.90;99.90
54082;DHT22;39986;50.770;0.266;2023-08-12T05:28:41;16.90;99.90
54082;DHT22;39986;50.770;0.266;2023-08-12T05:31:07;17.00;99.90
54082;DHT22;39986;50.770;0.266;2023-08-12T05:33:32;17.00;99.90
54082;DHT22;39986;50.770;0.266;2023-08-12T05:35:58;17.10;99.90
54082;DHT22;39986;50.770;0.266;2023-08-12T05:38:24;17.00;99.90
54082;DHT22;39986;50.770;0.266;2023-08-12T05:40:49;17.00;99.90
54082;DHT22;39986;50.770;0.266;2023-08-12T05:43:15;17.10;99.90
54082;DHT22;39986;50.770;0.266;2023-08-12T05:45:40;17.10;99.90
54082;DHT22;39986;50.770;0.266;2023-08-12T05:48:06;17.20;99.90
54082;DHT22;39986;50.770;0.266;2023-08-12T05:50:31;17.30;99.90
54082;DHT22;39986;50.770;0.266;2023-08-12T05:52:57;17.30;99.90
54082;DHT22;39986;50.770;0.266;2023-08-12T05:55:22;17.40;99.90
54082;DHT22;39986;50.770;0.266;2023-08-12T05:57:48;17.40;99.90
54082;DHT22;39986;50.770;0.266;2023-08-12T06:00:13;17.30;99.90
54082;DHT22;39986;50.770;0.266;2023-08-12T06:02:39;17.30;99.90
54082;DHT22;39986;50.770;0.266;2023-08-12T06:05:05;17.40;99.90
54082;DHT22;39986;50.770;0.266;2023-08-12T06:07:30;17.40;99.90
54082;DHT22;39986;50.770;0.266;2023-08-12T06:09:56;17.50;99.90
54082;DHT22;39986;50.770;0.266;2023-08-12T06:12:21;17.50;99.90
54082;DHT22;39986;50.770;0.266;2023-08-12T06:14:47;17.60;99.90
54082;DHT22;39986;50.770;0.266;2023-08-12T06:17:12;17.70;99.90
54082;DHT22;39986;50.770;0.266;2023-08-12T06:19:38;17.80;99.90
54082;DHT22;39986;50.770;0.266;2023-08-12T06:22:03;17.90;99.90
54082;DHT22;39986;50.770;0.266;2023-08-12T06:24:29;18.10;99.90
54082;DHT22;39986;50.770;0.266;2023-08-12T06:26:54;18.10;99.90
54082;DHT22;39986;50.770;0.266;2023-08-12T06:29:20;18.00;99.90
54082;DHT22;39986;50.770;0.266;2023-08-12T06:31:45;18.00;99.90
54082;DHT22;39986;50.770;0.266;2023-08-12T06:34:11;18.00;99.90
54082;DHT22;39986;50.770;0.266;2023-08-12T06:36:36;17.90;99.90
54082;DHT22;39986;50.770;0.266;2023-08-12T06:39:02;17.90;99.90
54082;DHT22;39986;50.770;0.266;2023-08-12T06:41:28;18.00;99.90
54082;DHT22;39986;50.770;0.266;2023-08-12T06:43:54;18.10;99.90
54082;DHT22;39986;50.770;0.266;2023-08-12T06:46:19;18.10;99.90
54082;DHT22;39986;50.770;0.266;2023-08-12T06:48:45;18.30;99.90
54082;DHT22;39986;50.770;0.266;2023-08-12T06:51:10;18.40;99.90
54082;DHT22;39986;50.770;0.266;2023-08-12T06:53:37;18.50;99.90
54082;DHT22;39986;50.770;0.266;2023-08-12T06:56:03;18.70;99.90
54082;DHT22;39986;50.770;0.266;2023-08-12T06:58:29;18.90;99.90
54082;DHT22;39986;50.770;0.266;2023-08-12T07:00:54;19.10;99.90
54082;DHT22;39986;50.770;0.266;2023-08-12T07:03:20;19.20;99.90
54082;DHT22;39986;50.770;0.266;2023-08-12T07:05:45;19.20;99.90
54082;DHT22;39986;50.770;0.266;2023-08-12T07:08:11;19.10;99.90
54082;DHT22;39986;50.770;0.266;2023-08-12T07:10:40;18.90;99.90
54082;DHT22;39986;50.770;0.266;2023-08-12T07:13:06;18.70;99.90
54082;DHT22;39986;50.770;0.266;2023-08-12T07:15:32;18.50;99.90
54082;DHT22;39986;50.770;0.266;2023-08-12T07:17:57;18.60;99.90
54082;DHT22;39986;50.770;0.266;2023-08-12T07:20:25;18.80;99.90
54082;DHT22;39986;50.770;0.266;2023-08-12T07:22:51;18.90;99.90
54082;DHT22;39986;50.770;0.266;2023-08-12T07:25:17;19.10;99.90
54082;DHT22;39986;50.770;0.266;2023-08-12T07:27:42;19.20;99.90
54082;DHT22;39986;50.770;0.266;2023-08-12T07:30:08;19.30;99.90
54082;DHT22;39986;50.770;0.266;2023-08-12T07:32:35;19.40;99.90
54082;DHT22;39986;50.770;0.266;2023-08-12T07:35:01;19.50;99.90
54082;DHT22;39986;50.770;0.266;2023-08-12T07:37:28;19.40;99.90
54082;DHT22;39986;50.770;0.266;2023-08-12T07:39:54;19.40;99.90
54082;DHT22;39986;50.770;0.266;2023-08-12T07:42:20;19.30;99.90
54082;DHT22;39986;50.770;0.266;2023-08-12T07:44:45;19.20;99.90
54082;DHT22;39986;50.770;0.266;2023-08-12T07:47:11;19.30;99.90
54082;DHT22;39986;50.770;0.266;2023-08-12T07:49:37;19.20;99.90
54082;DHT22;39986;50.770;0.266;2023-08-12T07:52:02;19.30;99.90
54082;DHT22;39986;50.770;0.266;2023-08-12T07:54:28;19.60;99.90
54082;DHT22;39986;50.770;0.266;2023-08-12T07:56:53;19.60;99.90
54082;DHT22;39986;50.770;0.266;2023-08-12T07:59:19;19.60;99.90
54082;DHT22;39986;50.770;0.266;2023-08-12T08:01:45;19.80;99.90
54082;DHT22;39986;50.770;0.266;2023-08-12T08:04:11;19.70;99.90
54082;DHT22;39986;50.770;0.266;2023-08-12T08:06:36;19.60;99.90
54082;DHT22;39986;50.770;0.266;2023-08-12T08:09:02;19.50;99.90
54082;DHT22;39986;50.770;0.266;2023-08-12T08:11:29;19.50;99.90
54082;DHT22;39986;50.770;0.266;2023-08-12T08:13:55;19.70;99.90
54082;DHT22;39986;50.770;0.266;2023-08-12T08:16:21;19.50;99.90
54082;DHT22;39986;50.770;0.266;2023-08-12T08:18:46;19.40;99.90
54082;DHT22;39986;50.770;0.266;2023-08-12T08:21:12;19.30;99.90
54082;DHT22;39986;50.770;0.266;2023-08-12T08:23:40;19.50;99.90
54082;DHT22;39986;50.770;0.266;2023-08-12T08:26:06;19.60;99.90
54082;DHT22;39986;50.770;0.266;2023-08-12T08:28:31;19.60;99.90
54082;DHT22;39986;50.770;0.266;2023-08-12T08:30:57;19.60;99.90
54082;DHT22;39986;50.770;0.266;2023-08-12T08:33:24;19.70;99.90
54082;DHT22;39986;50.770;0.266;2023-08-12T08:35:50;20.00;99.90
54082;DHT22;39986;50.770;0.266;2023-08-12T08:38:15;20.20;99.90
54082;DHT22;39986;50.770;0.266;2023-08-12T08:40:41;20.30;99.90
54082;DHT22;39986;50.770;0.266;2023-08-12T08:43:07;20.40;99.90
54082;DHT22;39986;50.770;0.266;2023-08-12T08:45:32;20.40;99.90
54082;DHT22;39986;50.770;0.266;2023-08-12T08:48:02;20.30;99.90
54082;DHT22;39986;50.770;0.266;2023-08-12T08:50:28;20.10;99.90
54082;DHT22;39986;50.770;0.266;2023-08-12T08:52:54;20.00;99.90
54082;DHT22;39986;50.770;0.266;2023-08-12T08:55:21;19.80;99.90
54082;DHT22;39986;50.770;0.266;2023-08-12T08:57:47;20.00;99.90
54082;DHT22;39986;50.770;0.266;2023-08-12T09:00:12;20.10;99.90
54082;DHT22;39986;50.770;0.266;2023-08-12T09:02:39;20.40;99.90
54082;DHT22;39986;50.770;0.266;2023-08-12T09:05:05;20.40;99.90
54082;DHT22;39986;50.770;0.266;2023-08-12T09:07:32;20.60;99.90
54082;DHT22;39986;50.770;0.266;2023-08-12T09:09:58;20.70;99.90
54082;DHT22;39986;50.770;0.266;2023-08-12T09:12:25;20.70;99.90
54082;DHT22;39986;50.770;0.266;2023-08-12T09:14:51;21.00;99.90
54082;DHT22;39986;50.770;0.266;2023-08-12T09:17:17;21.20;99.90
54082;DHT22;39986;50.770;0.266;2023-08-12T09:19:42;21.10;99.90
54082;DHT22;39986;50.770;0.266;2023-08-12T09:22:08;21.00;99.90
54082;DHT22;39986;50.770;0.266;2023-08-12T09:24:34;21.20;99.90
54082;DHT22;39986;50.770;0.266;2023-08-12T09:27:00;21.20;99.90
54082;DHT22;39986;50.770;0.266;2023-08-12T09:29:30;21.30;99.90
54082;DHT22;39986;50.770;0.266;2023-08-12T09:32:05;21.10;99.90
54082;DHT22;39986;50.770;0.266;2023-08-12T09:34:30;21.20;99.90
54082;DHT22;39986;50.770;0.266;2023-08-12T09:36:56;21.20;99.90
54082;DHT22;39986;50.770;0.266;2023-08-12T09:39:22;21.00;99.90
54082;DHT22;39986;50.770;0.266;2023-08-12T09:41:47;21.00;99.90
54082;DHT22;39986;50.770;0.266;2023-08-12T09:44:14;21.10;99.90
54082;DHT22;39986;50.770;0.266;2023-08-12T09:46:40;21.20;99.90
54082;DHT22;39986;50.770;0.266;2023-08-12T09:49:06;21.00;99.90
54082;DHT22;39986;50.770;0.266;2023-08-12T09:51:35;21.20;99.90
54082;DHT22;39986;50.770;0.266;2023-08-12T09:54:01;21.30;99.90
54082;DHT22;39986;50.770;0.266;2023-08-12T09:56:27;21.20;99.90
54082;DHT22;39986;50.770;0.266;2023-08-12T09:58:57;21.20;99.90
54082;DHT22;39986;50.770;0.266;2023-08-12T10:01:23;21.30;99.90
54082;DHT22;39986;50.770;0.266;2023-08-12T10:03:49;21.40;99.90
54082;DHT22;39986;50.770;0.266;2023-08-12T10:06:15;21.50;99.90
54082;DHT22;39986;50.770;0.266;2023-08-12T10:08:42;21.60;99.90
54082;DHT22;39986;50.770;0.266;2023-08-12T10:11:07;21.50;99.90
54082;DHT22;39986;50.770;0.266;2023-08-12T10:13:35;21.30;99.90
54082;DHT22;39986;50.770;0.266;2023-08-12T10:16:01;21.30;99.90
54082;DHT22;39986;50.770;0.266;2023-08-12T10:18:27;21.40;99.90
54082;DHT22;39986;50.770;0.266;2023-08-12T10:20:53;21.40;99.90
54082;DHT22;39986;50.770;0.266;2023-08-12T10:23:20;21.40;99.90
54082;DHT22;39986;50.770;0.266;2023-08-12T10:25:46;21.70;99.90
54082;DHT22;39986;50.770;0.266;2023-08-12T10:28:12;21.70;99.90
54082;DHT22;39986;50.770;0.266;2023-08-12T10:30:39;21.70;99.90
54082;DHT22;39986;50.770;0.266;2023-08-12T10:33:05;21.70;99.90
54082;DHT22;39986;50.770;0.266;2023-08-12T10:38:11;22.30;99.90
54082;DHT22;39986;50.770;0.266;2023-08-12T10:40:38;22.40;99.90
54082;DHT22;39986;50.770;0.266;2023-08-12T10:43:04;22.50;99.90
54082;DHT22;39986;50.770;0.266;2023-08-12T10:45:42;22.70;99.90
54082;DHT22;39986;50.770;0.266;2023-08-12T10:50:37;22.50;99.90
54082;DHT22;39986;50.770;0.266;2023-08-12T10:53:27;22.40;99.90
54082;DHT22;39986;50.770;0.266;2023-08-12T10:55:57;22.20;99.90
54082;DHT22;39986;50.770;0.266;2023-08-12T10:58:24;22.10;99.90
54082;DHT22;39986;50.770;0.266;2023-08-12T11:00:54;22.20;99.90
54082;DHT22;39986;50.770;0.266;2023-08-12T11:03:20;22.60;99.90
54082;DHT22;39986;50.770;0.266;2023-08-12T11:05:46;23.40;99.90
54082;DHT22;39986;50.770;0.266;2023-08-12T11:08:12;23.80;99.90
54082;DHT22;39986;50.770;0.266;2023-08-12T11:10:38;24.20;99.90
54082;DHT22;39986;50.770;0.266;2023-08-12T11:13:03;24.20;99.90
54082;DHT22;39986;50.770;0.266;2023-08-12T11:15:33;23.90;99.90
54082;DHT22;39986;50.770;0.266;2023-08-12T11:17:59;25.00;99.90
54082;DHT22;39986;50.770;0.266;2023-08-12T11:20:27;26.70;99.90
54082;DHT22;39986;50.770;0.266;2023-08-12T11:22:53;26.40;99.90
54082;DHT22;39986;50.770;0.266;2023-08-12T11:25:19;26.70;99.90
54082;DHT22;39986;50.770;0.266;2023-08-12T11:27:45;26.50;99.90
54082;DHT22;39986;50.770;0.266;2023-08-12T11:30:12;25.70;99.90
54082;DHT22;39986;50.770;0.266;2023-08-12T11:32:40;24.80;99.90
54082;DHT22;39986;50.770;0.266;2023-08-12T11:35:07;25.40;99.90
54082;DHT22;39986;50.770;0.266;2023-08-12T11:37:33;25.80;99.90
54082;DHT22;39986;50.770;0.266;2023-08-12T11:39:58;27.00;99.90
54082;DHT22;39986;50.770;0.266;2023-08-12T11:42:24;27.30;99.90
54082;DHT22;39986;50.770;0.266;2023-08-12T11:44:49;27.00;99.90
54082;DHT22;39986;50.770;0.266;2023-08-12T11:47:15;27.90;99.90
54082;DHT22;39986;50.770;0.266;2023-08-12T11:49:40;28.50;99.90
54082;DHT22;39986;50.770;0.266;2023-08-12T11:52:08;28.50;99.90
54082;DHT22;39986;50.770;0.266;2023-08-12T11:54:34;27.60;99.90
54082;DHT22;39986;50.770;0.266;2023-08-12T11:56:59;25.70;99.90
54082;DHT22;39986;50.770;0.266;2023-08-12T11:59:25;25.30;99.90
54082;DHT22;39986;50.770;0.266;2023-08-12T12:01:51;25.40;99.90
54082;DHT22;39986;50.770;0.266;2023-08-12T12:04:17;25.40;99.90
54082;DHT22;39986;50.770;0.266;2023-08-12T12:06:46;25.90;99.90
54082;DHT22;39986;50.770;0.266;2023-08-12T12:09:11;26.40;99.90
54082;DHT22;39986;50.770;0.266;2023-08-12T12:11:38;25.10;99.90
54082;DHT22;39986;50.770;0.266;2023-08-12T12:14:04;24.00;99.90
54082;DHT22;39986;50.770;0.266;2023-08-12T12:16:46;22.90;99.90
54082;DHT22;39986;50.770;0.266;2023-08-12T12:19:14;21.70;99.90
54082;DHT22;39986;50.770;0.266;2023-08-12T12:21:44;20.40;99.90
54082;DHT22;39986;50.770;0.266;2023-08-12T12:24:10;20.00;99.90
54082;DHT22;39986;50.770;0.266;2023-08-12T12:26:36;20.10;99.90
54082;DHT22;39986;50.770;0.266;2023-08-12T12:29:02;19.90;99.90
54082;DHT22;39986;50.770;0.266;2023-08-12T12:31:28;19.70;99.90
54082;DHT22;39986;50.770;0.266;2023-08-12T12:33:54;19.40;99.90
54082;DHT22;39986;50.770;0.266;2023-08-12T12:36:19;19.10;99.90
54082;DHT22;39986;50.770;0.266;2023-08-12T12:38:45;19.10;99.90
54082;DHT22;39986;50.770;0.266;2023-08-12T12:41:10;19.30;99.90
54082;DHT22;39986;50.770;0.266;2023-08-12T12:43:36;19.50;99.90
54082;DHT22;39986;50.770;0.266;2023-08-12T12:46:02;19.90;99.90
54082;DHT22;39986;50.770;0.266;2023-08-12T12:48:27;20.30;99.90
54082;DHT22;39986;50.770;0.266;2023-08-12T12:50:52;20.80;99.90
54082;DHT22;39986;50.770;0.266;2023-08-12T12:53:18;20.90;99.90
54082;DHT22;39986;50.770;0.266;2023-08-12T12:55:44;21.10;99.90
54082;DHT22;39986;50.770;0.266;2023-08-12T12:58:09;21.20;99.90
54082;DHT22;39986;50.770;0.266;2023-08-12T13:00:35;21.60;99.90
54082;DHT22;39986;50.770;0.266;2023-08-12T13:03:00;21.80;99.90
54082;DHT22;39986;50.770;0.266;2023-08-12T13:05:26;22.70;99.90
54082;DHT22;39986;50.770;0.266;2023-08-12T13:07:51;24.20;99.90
54082;DHT22;39986;50.770;0.266;2023-08-12T13:10:17;25.20;99.90
54082;DHT22;39986;50.770;0.266;2023-08-12T13:12:43;25.30;99.90
54082;DHT22;39986;50.770;0.266;2023-08-12T13:15:08;25.30;99.90
54082;DHT22;39986;50.770;0.266;2023-08-12T13:17:34;24.80;99.90
54082;DHT22;39986;50.770;0.266;2023-08-12T13:19:59;24.00;99.90
54082;DHT22;39986;50.770;0.266;2023-08-12T13:22:25;24.00;99.90
54082;DHT22;39986;50.770;0.266;2023-08-12T13:24:50;24.80;99.90
54082;DHT22;39986;50.770;0.266;2023-08-12T13:27:16;26.20;99.90
54082;DHT22;39986;50.770;0.266;2023-08-12T13:29:42;27.50;99.90
54082;DHT22;39986;50.770;0.266;2023-08-12T13:32:08;27.10;99.90
54082;DHT22;39986;50.770;0.266;2023-08-12T13:34:34;25.80;99.90
54082;DHT22;39986;50.770;0.266;2023-08-12T13:36:59;24.80;99.90
54082;DHT22;39986;50.770;0.266;2023-08-12T13:39:25;24.70;99.90
54082;DHT22;39986;50.770;0.266;2023-08-12T13:41:51;24.80;99.90
54082;DHT22;39986;50.770;0.266;2023-08-12T13:44:17;24.80;99.90
54082;DHT22;39986;50.770;0.266;2023-08-12T13:46:42;24.60;99.90
54082;DHT22;39986;50.770;0.266;2023-08-12T13:49:08;24.10;99.90
54082;DHT22;39986;50.770;0.266;2023-08-12T13:51:33;23.30;99.90
54082;DHT22;39986;50.770;0.266;2023-08-12T13:53:59;22.60;99.90
54082;DHT22;39986;50.770;0.266;2023-08-12T13:56:25;22.10;99.90
54082;DHT22;39986;50.770;0.266;2023-08-12T13:58:50;21.70;99.90
54082;DHT22;39986;50.770;0.266;2023-08-12T14:01:16;21.50;99.90
54082;DHT22;39986;50.770;0.266;2023-08-12T14:03:41;21.50;99.90
54082;DHT22;39986;50.770;0.266;2023-08-12T14:06:07;21.40;99.90
54082;DHT22;39986;50.770;0.266;2023-08-12T14:08:32;21.30;99.90
54082;DHT22;39986;50.770;0.266;2023-08-12T14:10:58;21.30;99.90
54082;DHT22;39986;50.770;0.266;2023-08-12T14:13:23;21.40;99.90
54082;DHT22;39986;50.770;0.266;2023-08-12T14:15:49;21.50;99.90
54082;DHT22;39986;50.770;0.266;2023-08-12T14:18:14;21.50;99.90
54082;DHT22;39986;50.770;0.266;2023-08-12T14:20:40;21.40;99.90
54082;DHT22;39986;50.770;0.266;2023-08-12T14:23:05;21.40;99.90
54082;DHT22;39986;50.770;0.266;2023-08-12T14:25:31;21.50;99.90
54082;DHT22;39986;50.770;0.266;2023-08-12T14:27:56;22.00;99.90
54082;DHT22;39986;50.770;0.266;2023-08-12T14:30:25;23.00;99.90
54082;DHT22;39986;50.770;0.266;2023-08-12T14:32:53;24.20;99.90
54082;DHT22;39986;50.770;0.266;2023-08-12T14:35:19;24.20;99.90
54082;DHT22;39986;50.770;0.266;2023-08-12T14:37:44;23.60;99.90
54082;DHT22;39986;50.770;0.266;2023-08-12T14:40:10;23.60;99.90
54082;DHT22;39986;50.770;0.266;2023-08-12T14:42:36;23.40;99.90
54082;DHT22;39986;50.770;0.266;2023-08-12T14:45:01;22.70;99.90
54082;DHT22;39986;50.770;0.266;2023-08-12T14:47:27;22.00;99.90
54082;DHT22;39986;50.770;0.266;2023-08-12T14:49:53;21.70;99.90
54082;DHT22;39986;50.770;0.266;2023-08-12T14:52:19;21.40;99.90
54082;DHT22;39986;50.770;0.266;2023-08-12T14:54:45;21.30;99.90
54082;DHT22;39986;50.770;0.266;2023-08-12T14:57:11;21.20;99.90
54082;DHT22;39986;50.770;0.266;2023-08-12T14:59:36;21.10;99.90
54082;DHT22;39986;50.770;0.266;2023-08-12T15:02:02;21.00;99.90
54082;DHT22;39986;50.770;0.266;2023-08-12T15:04:27;21.00;99.90
54082;DHT22;39986;50.770;0.266;2023-08-12T15:06:53;21.00;99.90
54082;DHT22;39986;50.770;0.266;2023-08-12T15:09:18;21.00;99.90
54082;DHT22;39986;50.770;0.266;2023-08-12T15:11:44;21.20;99.90
54082;DHT22;39986;50.770;0.266;2023-08-12T15:14:09;21.40;99.90
54082;DHT22;39986;50.770;0.266;2023-08-12T15:16:35;21.40;99.90
54082;DHT22;39986;50.770;0.266;2023-08-12T15:19:01;21.50;99.90
54082;DHT22;39986;50.770;0.266;2023-08-12T15:21:27;21.90;99.90
54082;DHT22;39986;50.770;0.266;2023-08-12T15:23:53;22.20;99.90
54082;DHT22;39986;50.770;0.266;2023-08-12T15:26:18;22.20;99.90
54082;DHT22;39986;50.770;0.266;2023-08-12T15:28:44;21.80;99.90